Time;durP1;ratioP1;P1;durP2;ratioP2;P2;SDS_P1;SDS_P2;PMS_P1;PMS_P2;Temp;Humidity;BMP_temperature;BMP_pressure;BME280_temperature;BME280_humidity;BME280_pressure;Samples;Min_cycle;Max_cycle;Signal;HPM_P1;HPM_P2
2021/12/08 00:02:00;;;;;;;16.67;11.30;;;;;;;-0.88;89.50;99037.50;1748468;81;21023;-66
2021/12/08 00:04:27;;;;;;;17.25;11.25;;;;;;;-0.83;89.45;99036.35;1760828;81;21085;-65
2021/12/08 00:06:53;;;;;;;16.80;11.63;;;;;;;-0.80;89.35;99027.90;1752655;80;21006;-65
2021/12/08 00:09:34;;;;;;;17.87;11.03;;;;;;;-0.79;89.27;99037.56;1761387;81;21854;-65
2021/12/08 00:14:41;;;;;;;15.90;10.58;;;;;;;-0.79;89.22;99030.06;1722973;81;21117;-66
2021/12/08 00:17:08;;;;;;;16.15;10.95;;;;;;;-0.81;89.15;99042.29;1729281;81;21474;-66
2021/12/08 00:19:34;;;;;;;16.70;11.48;;;;;;;-0.87;89.21;99028.97;1743582;81;21113;-66
2021/12/08 00:22:00;;;;;;;15.40;10.82;;;;;;;-0.89;89.32;99035.06;1747329;81;21513;-65
2021/12/08 00:24:27;;;;;;;15.93;10.60;;;;;;;-0.89;89.42;99034.55;1756366;80;21157;-65
2021/12/08 00:26:56;;;;;;;17.27;10.72;;;;;;;-0.87;89.37;99031.13;1758441;81;21500;-66
2021/12/08 00:29:22;;;;;;;19.32;12.55;;;;;;;-0.87;89.34;99030.31;1744047;81;21694;-64
2021/12/08 00:31:49;;;;;;;18.23;12.28;;;;;;;-0.89;89.36;99020.37;1741049;81;21101;-65
2021/12/08 00:34:15;;;;;;;16.90;11.65;;;;;;;-0.88;89.37;99027.33;1753543;81;21078;-65
2021/12/08 00:36:45;;;;;;;17.85;11.43;;;;;;;-0.87;89.27;99027.64;1744517;81;21557;-65
2021/12/08 00:39:10;;;;;;;19.27;12.88;;;;;;;-0.94;89.27;99039.70;1747816;81;21059;-66
2021/12/08 00:41:36;;;;;;;;;;;;;;;-0.97;89.36;99056.68;1703421;83;21068;-66
2021/12/08 00:44:03;;;;;;;20.70;12.33;;;;;;;-0.98;89.37;99058.53;1692110;83;20431;-66
2021/12/08 00:46:31;;;;;;;19.00;12.68;;;;;;;-0.99;89.37;99054.75;1695371;83;21046;-66
2021/12/08 00:48:57;;;;;;;18.77;12.03;;;;;;;-1.01;89.33;99053.63;1689733;84;21142;-66
2021/12/08 00:51:23;;;;;;;19.73;12.03;;;;;;;-1.02;89.36;99042.11;1717158;83;21455;-66
2021/12/08 00:53:49;;;;;;;18.65;11.68;;;;;;;-0.99;89.28;99043.53;1672345;83;21058;-65
2021/12/08 00:56:16;;;;;;;20.48;12.63;;;;;;;-1.03;89.20;99034.33;1685825;84;21099;-65
2021/12/08 00:58:43;;;;;;;20.75;13.75;;;;;;;-1.06;89.27;99028.05;1696809;84;21683;-65
2021/12/08 01:01:09;;;;;;;;;;;;;;;-1.06;89.26;99022.70;1693806;84;21050;-67
2021/12/08 01:03:36;;;;;;;20.82;12.95;;;;;;;-1.08;89.20;99023.45;1692295;84;20413;-66
2021/12/08 01:06:04;;;;;;;20.62;12.80;;;;;;;-1.11;89.30;99037.24;1680548;84;21601;-66
2021/12/08 01:08:30;;;;;;;21.02;12.95;;;;;;;-1.09;89.39;99044.00;1702997;82;21133;-65
2021/12/08 01:10:58;;;;;;;;;;;;;;;-1.07;89.36;99043.80;1707134;83;21042;-66
2021/12/08 01:13:25;;;;;;;20.62;13.03;;;;;;;-1.09;89.36;99045.33;1694305;84;20183;-66
2021/12/08 01:15:55;;;;;;;20.95;13.25;;;;;;;-1.13;89.50;99040.63;1719080;83;21038;-66
2021/12/08 01:18:22;;;;;;;19.95;12.80;;;;;;;-1.11;89.55;99038.06;1711929;83;21152;-66
2021/12/08 01:20:49;;;;;;;20.10;12.65;;;;;;;-1.09;89.48;99039.98;1683771;83;21058;-66
2021/12/08 01:23:15;;;;;;;;;;;;;;;-1.07;89.44;99039.80;1682656;84;21095;-66
2021/12/08 01:25:42;;;;;;;21.93;13.10;;;;;;;-1.04;89.38;99030.01;1701760;84;20145;-65
2021/12/08 01:28:08;;;;;;;22.80;14.05;;;;;;;-1.07;89.38;99025.92;1690829;82;21051;-65
2021/12/08 01:30:35;;;;;;;;;;;;;;;-1.10;89.38;99025.53;1687805;84;21068;-66
2021/12/08 01:33:01;;;;;;;21.90;14.05;;;;;;;-1.13;89.45;99024.09;1689441;84;20105;-65
2021/12/08 01:35:28;;;;;;;23.12;14.80;;;;;;;-1.16;89.52;99025.85;1685560;84;21876;-66
2021/12/08 01:37:54;;;;;;;22.37;13.83;;;;;;;-1.12;89.47;99024.91;1704672;84;21057;-65
2021/12/08 01:40:20;;;;;;;22.20;14.68;;;;;;;-1.12;89.45;99036.42;1707964;82;21082;-65
2021/12/08 01:42:50;;;;;;;23.05;14.18;;;;;;;-1.08;89.41;99034.14;1724691;83;21030;-66
2021/12/08 01:48:10;;;;;;;25.90;15.15;;;;;;;-1.10;89.27;99013.52;1713953;83;21145;-65
2021/12/08 01:50:36;;;;;;;25.95;15.72;;;;;;;-1.11;89.22;99018.03;1723433;83;21025;-66
2021/12/08 01:53:04;;;;;;;;;;;;;;;-1.16;89.16;99019.17;1720284;83;21549;-66
2021/12/08 01:55:31;;;;;;;24.23;14.03;;;;;;;-1.17;89.24;99023.41;1694043;83;20150;-66
2021/12/08 01:57:57;;;;;;;26.50;16.67;;;;;;;-1.20;89.25;99019.81;1715617;81;21651;-66
2021/12/08 02:00:29;;;;;;;21.87;13.70;;;;;;;-1.21;89.26;99024.36;1679523;84;21067;-65
2021/12/08 02:02:59;;;;;;;23.83;14.68;;;;;;;-1.21;89.26;99007.51;1658322;83;21107;-67
2021/12/08 02:05:26;;;;;;;24.92;15.80;;;;;;;-1.19;89.28;99016.11;1702651;83;21569;-67
2021/12/08 02:07:52;;;;;;;;;;;;;;;-1.18;89.24;99007.08;1707087;83;21038;-66
2021/12/08 02:10:19;;;;;;;25.60;15.75;;;;;;;-1.18;89.25;99007.90;1708360;83;20152;-67
2021/12/08 02:12:46;;;;;;;23.92;14.28;;;;;;;-1.21;89.26;99009.67;1706640;83;21009;-66
2021/12/08 02:15:14;;;;;;;25.60;15.00;;;;;;;-1.24;89.30;99002.60;1714781;83;21036;-67
2021/12/08 02:17:41;;;;;;;26.87;15.98;;;;;;;-1.25;89.40;99012.45;1724396;83;21070;-66
2021/12/08 02:20:10;;;;;;;24.02;14.55;;;;;;;-1.22;89.39;98992.00;1679106;84;21661;-66
2021/12/08 02:22:37;;;;;;;27.50;16.00;;;;;;;-1.21;89.31;98998.16;1693751;82;21379;-66
2021/12/08 02:25:06;;;;;;;24.77;14.55;;;;;;;-1.21;89.28;98999.50;1694146;83;21070;-67
2021/12/08 02:27:33;;;;;;;24.82;15.53;;;;;;;-1.21;89.27;99011.00;1690585;83;21018;-66
2021/12/08 02:30:11;;;;;;;24.72;15.78;;;;;;;-1.24;89.27;99009.28;1689636;84;21600;-66
2021/12/08 02:48:39;;;;;;;24.77;14.75;;;;;;;-1.21;89.34;98995.49;1709379;83;21145;-66
2021/12/08 02:51:06;;;;;;;26.73;16.15;;;;;;;-1.19;89.34;99000.91;1674700;84;21149;-66
2021/12/08 02:53:32;;;;;;;24.07;15.65;;;;;;;-1.16;89.30;99011.16;1727414;83;21061;-66
2021/12/08 02:55:58;;;;;;;23.00;15.15;;;;;;;-1.16;89.25;99008.49;1676070;84;21033;-66
2021/12/08 02:58:25;;;;;;;25.75;16.12;;;;;;;-1.17;89.26;98997.50;1694159;81;21110;-66
2021/12/08 03:00:56;;;;;;;22.93;14.15;;;;;;;-1.20;89.34;98994.44;1706857;82;21418;-67
2021/12/08 03:03:22;;;;;;;26.00;15.80;;;;;;;-1.18;89.32;99004.41;1700707;81;21559;-66
2021/12/08 03:05:49;;;;;;;24.98;15.58;;;;;;;-1.18;89.30;99006.56;1700220;83;21022;-66
2021/12/08 03:08:15;;;;;;;25.70;16.00;;;;;;;-1.17;89.30;99017.53;1710458;83;21109;-66
2021/12/08 03:10:44;;;;;;;27.13;16.70;;;;;;;-1.15;89.30;99014.14;1716619;83;21019;-66
2021/12/08 03:13:12;;;;;;;25.60;15.15;;;;;;;-1.16;89.27;99014.34;1706187;81;21098;-66
2021/12/08 03:15:39;;;;;;;24.82;13.48;;;;;;;-1.18;89.27;99016.42;1713779;81;21539;-66
2021/12/08 03:18:05;;;;;;;24.00;14.80;;;;;;;-1.17;89.26;99008.18;1704812;82;21146;-66
2021/12/08 03:20:40;;;;;;;22.60;14.33;;;;;;;-1.14;89.24;99012.30;1702710;83;21524;-67
2021/12/08 03:23:12;;;;;;;24.15;13.98;;;;;;;-1.14;89.20;99009.63;1705865;82;21943;-66
2021/12/08 03:25:42;;;;;;;27.05;14.85;;;;;;;-1.15;89.19;98997.30;1716690;83;21529;-66
2021/12/08 03:28:22;;;;;;;25.17;15.38;;;;;;;-1.17;89.18;99000.71;1714236;81;21249;-66
2021/12/08 03:30:50;;;;;;;25.55;15.68;;;;;;;-1.17;89.22;98999.38;1701640;82;21030;-67
2021/12/08 03:33:04;;;;;;;25.05;15.45;;;;;;;-1.17;89.21;98988.15;1712318;83;21993;-67
2021/12/08 03:35:31;;;;;;;;;;;;;;;-1.18;89.21;98983.86;1687629;84;21031;-67
2021/12/08 03:37:58;;;;;;;24.40;14.75;;;;;;;-1.19;89.36;98980.06;1691750;84;20204;-67
2021/12/08 03:40:26;;;;;;;27.45;15.90;;;;;;;-1.21;89.49;98987.48;1707188;83;21073;-66
2021/12/08 03:42:55;;;;;;;26.68;15.28;;;;;;;-1.17;89.52;98980.14;1670788;84;21031;-66
2021/12/08 03:45:26;;;;;;;29.18;15.85;;;;;;;-1.18;89.43;98987.87;1676680;84;21478;-66
2021/12/08 03:48:00;;;;;;;28.60;15.30;;;;;;;-1.21;89.54;98984.81;1726431;83;20994;-66
2021/12/08 03:50:22;;;;;;;27.27;16.05;;;;;;;-1.18;89.51;98991.05;1718300;83;21053;-66
2021/12/08 03:52:48;;;;;;;30.25;17.07;;;;;;;-1.16;89.46;98999.66;1702857;82;20993;-67
2021/12/08 03:55:15;;;;;;;28.70;16.07;;;;;;;-1.14;89.42;98997.09;1721520;83;21042;-67
2021/12/08 03:57:41;;;;;;;29.30;15.85;;;;;;;-1.16;89.39;98993.80;1716248;83;21010;-67
2021/12/08 04:00:15;;;;;;;24.57;15.35;;;;;;;-1.12;89.42;98996.86;1721167;83;21552;-66
2021/12/08 04:02:41;;;;;;;27.87;16.17;;;;;;;-1.12;89.37;98996.86;1707817;82;20997;-66
2021/12/08 04:05:09;;;;;;;25.90;16.32;;;;;;;-1.16;89.50;98983.63;1713164;83;21029;-66
2021/12/08 04:07:43;;;;;;;27.30;16.12;;;;;;;-1.16;89.58;98979.63;1692292;82;21062;-66
2021/12/08 04:10:06;;;;;;;26.27;15.78;;;;;;;-1.15;89.58;98982.61;1676820;84;21632;-67
2021/12/08 04:12:34;;;;;;;24.45;14.58;;;;;;;-1.11;89.56;98987.83;1721733;83;21022;-66
2021/12/08 04:15:03;;;;;;;26.45;14.18;;;;;;;-1.09;89.51;98984.41;1684705;84;21642;-66
2021/12/08 04:17:43;;;;;;;28.83;15.53;;;;;;;-1.08;89.52;98976.70;1688862;84;21043;-66
2021/12/08 04:20:21;;;;;;;25.20;14.85;;;;;;;-1.10;89.62;98981.46;1717834;83;21018;-67
2021/12/08 04:22:51;;;;;;;26.80;15.23;;;;;;;-1.06;89.65;98987.98;1724555;83;21034;-67
2021/12/08 04:25:22;;;;;;;23.52;14.03;;;;;;;-1.07;89.62;98993.87;1725478;83;21097;-66
2021/12/08 04:27:51;;;;;;;23.27;14.23;;;;;;;-1.03;89.64;98982.23;1689500;84;21106;-65
2021/12/08 04:30:32;;;;;;;22.50;13.93;;;;;;;-1.02;89.67;98982.52;1672622;84;21140;-66
2021/12/08 04:32:59;;;;;;;23.60;13.93;;;;;;;-0.99;89.64;98991.43;1695314;83;21094;-65
2021/12/08 04:35:26;;;;;;;;;;;;;;;-0.98;89.66;98999.75;1675949;84;21087;-66
2021/12/08 04:37:57;;;;;;;25.12;13.15;;;;;;;-0.96;89.66;98989.69;1678342;84;20121;-65
2021/12/08 04:40:44;;;;;;;25.62;13.80;;;;;;;-0.97;89.69;98992.56;1688403;84;21109;-65
2021/12/08 04:43:39;;;;;;;26.25;14.18;;;;;;;-0.95;89.73;98995.83;1705420;84;21102;-65
2021/12/08 04:46:13;;;;;;;20.72;13.15;;;;;;;-0.95;89.73;98996.64;1686191;82;21085;-65
2021/12/08 04:48:55;;;;;;;25.20;13.83;;;;;;;-0.93;89.74;98990.59;1684982;83;21121;-66
2021/12/08 05:09:44;;;;;;;23.35;13.10;;;;;;;-0.89;89.87;98994.47;1687908;83;21633;-67
2021/12/08 05:12:18;;;;;;;22.98;12.93;;;;;;;-0.86;89.85;99001.23;1685818;84;21092;-67
2021/12/08 05:14:55;;;;;;;20.75;12.70;;;;;;;-0.85;89.90;99004.21;1692618;84;21094;-67
2021/12/08 05:17:29;;;;;;;22.17;13.45;;;;;;;-0.85;89.84;98999.66;1685509;84;21077;-67
2021/12/08 05:19:58;;;;;;;21.87;11.55;;;;;;;-0.84;89.88;99005.83;1684633;84;21078;-67
2021/12/08 05:22:32;;;;;;;19.45;11.85;;;;;;;-0.81;89.93;99002.20;1703981;84;21549;-67
2021/12/08 05:25:02;;;;;;;19.35;11.70;;;;;;;-0.77;89.97;99002.08;1695578;83;21154;-68
2021/12/08 05:27:40;;;;;;;23.83;12.30;;;;;;;-0.77;89.95;99002.08;1684451;82;21473;-67
2021/12/08 05:30:20;;;;;;;21.23;12.58;;;;;;;-0.77;90.03;98989.23;1695780;84;21177;-67
2021/12/08 05:32:48;;;;;;;21.05;11.97;;;;;;;-0.74;90.00;98994.13;1705095;83;21042;-67
2021/12/08 05:35:16;;;;;;;20.90;12.33;;;;;;;-0.75;89.99;98997.35;1669747;84;21564;-67
2021/12/08 05:37:42;;;;;;;23.77;12.23;;;;;;;-0.72;90.01;98986.22;1723307;83;21619;-68
2021/12/08 05:40:14;;;;;;;20.52;11.38;;;;;;;-0.70;89.98;98977.45;1679135;81;21176;-68
2021/12/08 05:42:41;;;;;;;20.95;11.78;;;;;;;-0.71;89.92;98991.05;1676670;84;21071;-68
2021/12/08 05:45:12;;;;;;;18.80;11.03;;;;;;;-0.70;89.96;99004.70;1661254;84;21094;-68
2021/12/08 05:47:38;;;;;;;20.10;11.18;;;;;;;-0.70;90.00;99001.51;1714749;83;20997;-67
2021/12/08 05:50:06;;;;;;;19.73;11.00;;;;;;;-0.68;89.97;98998.12;1718127;83;21501;-66
2021/12/08 05:52:34;;;;;;;17.77;10.32;;;;;;;-0.66;89.99;98989.87;1672201;84;21110;-67
2021/12/08 05:55:01;;;;;;;18.32;10.60;;;;;;;-0.61;89.95;99002.08;1727226;83;21063;-66
2021/12/08 05:57:31;;;;;;;17.73;10.53;;;;;;;-0.63;89.92;98996.94;1662463;84;21058;-67
2021/12/08 05:59:59;;;;;;;17.52;9.75;;;;;;;-0.64;89.91;99000.63;1725541;83;21073;-67
2021/12/08 06:02:30;;;;;;;18.02;9.75;;;;;;;-0.63;89.87;99005.47;1674746;84;21382;-67
2021/12/08 06:04:56;;;;;;;19.30;10.75;;;;;;;-0.65;89.85;99007.55;1702651;84;21103;-67
2021/12/08 06:07:23;;;;;;;15.72;9.75;;;;;;;-0.62;89.86;99006.59;1723476;83;21018;-67
2021/12/08 06:09:51;;;;;;;15.48;9.78;;;;;;;-0.58;89.85;99005.64;1701003;83;21586;-66
2021/12/08 06:12:18;;;;;;;15.78;9.65;;;;;;;-0.59;89.79;98999.47;1708988;83;21584;-67
2021/12/08 06:14:45;;;;;;;15.98;9.30;;;;;;;-0.61;89.86;99010.09;1718413;83;21046;-66
2021/12/08 06:17:14;;;;;;;15.53;9.30;;;;;;;-0.61;89.95;99010.92;1719672;83;21023;-70
2021/12/08 06:19:42;;;;;;;15.55;8.25;;;;;;;-0.54;89.89;99021.05;1718627;83;21560;-66
2021/12/08 06:22:11;;;;;;;16.05;8.95;;;;;;;-0.53;89.79;99013.81;1714442;82;21030;-66
2021/12/08 06:24:39;;;;;;;16.17;9.23;;;;;;;-0.54;89.77;99021.05;1714687;83;21093;-67
2021/12/08 06:27:05;;;;;;;15.05;8.35;;;;;;;-0.52;89.78;99008.77;1700810;83;21022;-68
2021/12/08 06:29:33;;;;;;;14.95;8.43;;;;;;;-0.50;89.82;99010.19;1716353;83;21054;-69
2021/12/08 06:32:02;;;;;;;16.27;8.83;;;;;;;-0.52;89.83;99008.27;1691956;83;21514;-68
2021/12/08 06:34:30;;;;;;;15.83;8.45;;;;;;;-0.54;89.89;99009.02;1720502;82;21125;-68
2021/12/08 06:37:11;;;;;;;15.58;8.23;;;;;;;-0.51;89.85;99005.89;1714130;82;21529;-68
2021/12/08 06:39:42;;;;;;;12.80;7.28;;;;;;;-0.48;89.75;99011.83;1701319;83;21070;-68
2021/12/08 06:42:13;;;;;;;13.65;7.53;;;;;;;-0.48;89.62;99007.81;1704854;83;21029;-68
2021/12/08 06:44:41;;;;;;;11.90;7.50;;;;;;;-0.53;89.56;99017.31;1707274;83;21628;-70
2021/12/08 06:47:11;;;;;;;11.85;7.22;;;;;;;-0.54;89.65;99025.05;1705022;82;21540;-69
2021/12/08 06:49:38;;;;;;;13.18;7.50;;;;;;;-0.56;89.63;99013.73;1722117;83;21945;-69
2021/12/08 06:52:08;;;;;;;;;;;;;;;-0.59;89.71;99023.53;1714464;83;21230;-68
2021/12/08 06:54:40;;;;;;;12.93;7.37;;;;;;;-0.54;89.75;99018.37;1717771;82;20105;-70
2021/12/08 06:57:19;;;;;;;11.45;5.92;;;;;;;-0.54;89.74;99021.05;1708267;83;21069;-69
2021/12/08 06:59:58;;;;;;;12.20;7.05;;;;;;;-0.51;89.70;99017.92;1693596;83;21101;-69
2021/12/08 07:02:47;;;;;;;12.75;6.55;;;;;;;-0.51;89.61;99021.11;1708198;83;21031;-68
2021/12/08 07:05:09;;;;;;;10.80;5.87;;;;;;;-0.58;89.61;99023.02;1707006;83;21073;-68
2021/12/08 07:07:28;;;;;;;9.70;6.03;;;;;;;-0.57;89.67;99023.33;1714374;81;21070;-68
2021/12/08 07:10:05;;;;;;;12.55;6.58;;;;;;;-0.55;89.60;99015.39;1713184;83;21130;-69
2021/12/08 07:12:39;;;;;;;10.65;5.97;;;;;;;-0.52;89.49;99014.95;1721693;83;20989;-69
2021/12/08 07:15:16;;;;;;;10.08;6.12;;;;;;;-0.52;89.43;99014.95;1675491;84;21047;-67
2021/12/08 07:17:46;;;;;;;11.75;6.33;;;;;;;-0.49;89.43;99011.01;1709955;83;21012;-68
2021/12/08 07:20:33;;;;;;;11.38;6.47;;;;;;;-0.45;89.42;99006.04;1707535;82;21066;-67
2021/12/08 07:22:49;;;;;;;10.78;6.17;;;;;;;-0.48;89.31;99009.98;1710366;82;21097;-68
2021/12/08 07:25:18;;;;;;;12.15;6.55;;;;;;;-0.51;89.39;99013.92;1700916;83;21057;-68
2021/12/08 07:27:44;;;;;;;9.65;6.05;;;;;;;-0.47;89.38;99016.97;1728129;83;21605;-67
2021/12/08 07:30:16;;;;;;;8.45;4.97;;;;;;;-0.45;89.35;99018.90;1691951;84;21600;-67
2021/12/08 07:32:43;;;;;;;7.95;5.17;;;;;;;-0.44;89.25;99015.20;1686367;84;21905;-67
2021/12/08 07:35:21;;;;;;;9.13;5.25;;;;;;;-0.46;89.27;99016.45;1711246;83;21037;-67
2021/12/08 07:37:48;;;;;;;11.38;6.37;;;;;;;-0.43;89.19;99014.68;1678219;83;21106;-67
2021/12/08 07:40:27;;;;;;;11.40;6.35;;;;;;;-0.44;89.14;99017.05;1719316;83;21046;-66
2021/12/08 07:42:59;;;;;;;10.15;6.05;;;;;;;-0.43;89.15;99014.17;1677054;84;21227;-67
2021/12/08 07:45:35;;;;;;;9.73;5.60;;;;;;;-0.43;89.16;99022.70;1702531;83;21420;-67
2021/12/08 07:48:05;;;;;;;8.90;4.97;;;;;;;-0.45;89.29;99016.73;1709598;82;21109;-67
2021/12/08 07:50:42;;;;;;;8.95;5.00;;;;;;;-0.43;89.25;99014.17;1716340;83;21067;-68
2021/12/08 07:53:09;;;;;;;8.68;5.65;;;;;;;-0.39;89.16;99010.53;1709067;82;21082;-67
2021/12/08 07:55:40;;;;;;;10.40;5.35;;;;;;;-0.41;89.11;99001.89;1708615;83;21039;-69
2021/12/08 07:58:08;;;;;;;7.80;4.67;;;;;;;-0.43;89.13;99010.67;1697157;83;21081;-68
2021/12/08 08:00:44;;;;;;;9.58;5.25;;;;;;;-0.42;89.09;99001.59;1704900;83;21176;-68
2021/12/08 08:03:11;;;;;;;8.73;5.12;;;;;;;-0.39;88.99;99003.85;1708718;83;21074;-68
2021/12/08 08:05:39;;;;;;;8.85;5.10;;;;;;;-0.39;88.88;99005.19;1704534;83;21002;-69
2021/12/08 08:08:10;;;;;;;8.75;4.78;;;;;;;-0.41;88.80;99004.05;1709533;83;21156;-68
2021/12/08 08:10:43;;;;;;;8.10;4.87;;;;;;;-0.46;88.84;99001.75;1710534;82;21070;-68
2021/12/08 08:13:10;;;;;;;8.53;4.90;;;;;;;-0.44;88.81;99003.67;1716820;82;21071;-68
2021/12/08 08:15:43;;;;;;;8.53;5.65;;;;;;;-0.44;88.76;99002.34;1719351;83;21632;-69
2021/12/08 08:18:10;;;;;;;8.73;5.60;;;;;;;-0.41;88.77;99003.23;1699484;83;21618;-69
2021/12/08 08:20:44;;;;;;;9.68;5.83;;;;;;;-0.42;88.61;98997.58;1713733;83;21552;-69
2021/12/08 08:23:11;;;;;;;9.00;5.20;;;;;;;-0.48;88.65;98989.92;1697329;82;21074;-69
2021/12/08 08:25:40;;;;;;;7.25;4.65;;;;;;;-0.46;88.71;98985.16;1731258;83;21547;-69
2021/12/08 08:28:07;;;;;;;9.88;5.67;;;;;;;-0.45;88.65;98993.49;1714333;83;21089;-68
2021/12/08 08:30:38;;;;;;;9.23;5.05;;;;;;;-0.43;88.64;98991.95;1688871;83;21026;-69
2021/12/08 08:33:05;;;;;;;9.25;5.22;;;;;;;-0.44;88.55;98989.80;1722798;83;21122;-68
2021/12/08 08:35:43;;;;;;;8.45;5.00;;;;;;;-0.46;88.46;98983.83;1701166;83;21013;-68
2021/12/08 08:38:31;;;;;;;;;;;;;;;-0.46;88.41;98985.70;1710731;81;21024;-68
2021/12/08 08:41:03;;;;;;;10.27;5.80;;;;;;;-0.54;88.45;98982.27;1697811;83;20122;-67
2021/12/08 08:43:29;;;;;;;12.68;6.25;;;;;;;-0.58;88.59;98971.72;1715748;83;21062;-67
2021/12/08 08:46:08;;;;;;;7.85;4.85;;;;;;;-0.58;88.60;98973.05;1713204;83;21026;-67
2021/12/08 08:48:40;;;;;;;8.58;4.95;;;;;;;-0.61;88.64;98969.48;1704471;83;21058;-67
2021/12/08 08:51:32;;;;;;;11.15;5.58;;;;;;;-0.59;88.52;98962.56;1708034;83;21006;-67
2021/12/08 08:54:04;;;;;;;9.88;5.75;;;;;;;-0.60;88.46;98958.24;1700315;83;21109;-66
2021/12/08 08:56:35;;;;;;;9.80;5.33;;;;;;;-0.61;88.53;98953.45;1710513;83;21044;-67
2021/12/08 08:59:12;;;;;;;9.03;5.10;;;;;;;-0.58;88.52;98953.52;1700800;83;21106;-67
2021/12/08 09:01:43;;;;;;;9.58;5.60;;;;;;;-0.61;88.56;98942.75;1715239;82;20994;-67
2021/12/08 09:04:14;;;;;;;8.73;5.25;;;;;;;-0.63;88.50;98942.13;1718689;83;21082;-67
2021/12/08 09:06:44;;;;;;;7.80;4.80;;;;;;;-0.63;88.46;98934.11;1707157;83;21073;-67
2021/12/08 09:09:16;;;;;;;11.57;5.62;;;;;;;-0.64;88.29;98936.48;1721550;83;21030;-66
2021/12/08 09:11:48;;;;;;;8.33;4.78;;;;;;;-0.69;88.26;98937.67;1722788;83;21006;-68
2021/12/08 09:14:27;;;;;;;7.87;4.53;;;;;;;-0.68;88.33;98946.00;1709613;83;21054;-67
2021/12/08 09:17:00;;;;;;;;;;;;;;;-0.73;88.33;98949.83;1712802;83;21041;-67
2021/12/08 09:19:32;;;;;;;6.45;4.03;;;;;;;-0.75;88.43;98958.59;1721914;83;20106;-67
2021/12/08 09:22:07;;;;;;;5.58;3.50;;;;;;;-0.74;88.54;98964.73;1714725;83;21039;-68
2021/12/08 09:24:47;;;;;;;6.92;3.75;;;;;;;-0.67;88.64;98968.17;1715563;83;21146;-68
2021/12/08 09:27:20;;;;;;;6.30;3.12;;;;;;;-0.69;88.62;98979.10;1698460;83;21459;-66
2021/12/08 09:30:01;;;;;;;6.40;3.92;;;;;;;-0.65;88.70;98971.47;1693573;84;21149;-67
2021/12/08 09:32:41;;;;;;;7.00;4.00;;;;;;;-0.62;88.65;98973.70;1695642;83;21504;-67
2021/12/08 09:35:34;;;;;;;5.50;3.40;;;;;;;-0.60;88.50;98970.27;1694556;84;21634;-68
2021/12/08 09:38:09;;;;;;;6.20;3.65;;;;;;;-0.59;88.42;98971.41;1695852;84;21149;-68
2021/12/08 09:40:50;;;;;;;5.33;3.35;;;;;;;-0.61;88.32;98972.16;1703405;83;21022;-68
2021/12/08 09:43:25;;;;;;;6.15;3.70;;;;;;;-0.61;88.30;98965.47;1720453;82;21636;-67
2021/12/08 09:45:56;;;;;;;5.20;2.98;;;;;;;-0.67;88.30;98964.16;1721467;83;21034;-66
2021/12/08 09:48:27;;;;;;;6.50;3.60;;;;;;;-0.71;88.39;98961.11;1722772;83;21082;-66
2021/12/08 09:50:51;;;;;;;8.10;3.40;;;;;;;-0.69;88.35;98955.05;1721484;83;21041;-67
2021/12/08 09:53:17;;;;;;;6.22;3.70;;;;;;;-0.66;88.31;98957.79;1719845;83;21059;-67
2021/12/08 09:55:43;;;;;;;5.85;3.52;;;;;;;-0.64;88.22;98961.08;1723915;82;21033;-67
2021/12/08 09:58:10;;;;;;;6.33;3.10;;;;;;;-0.65;88.25;98961.59;1723089;82;21038;-67
2021/12/08 10:00:40;;;;;;;5.58;3.10;;;;;;;-0.65;88.34;98955.42;1700617;83;21034;-67
2021/12/08 10:03:06;;;;;;;5.33;2.80;;;;;;;-0.61;88.35;98956.12;1692790;84;21098;-67
2021/12/08 10:05:34;;;;;;;;;;;;;;;-0.59;88.23;98947.34;1695662;84;21027;-67
2021/12/08 10:08:02;;;;;;;5.65;3.17;;;;;;;-0.59;88.08;98954.03;1693231;84;20109;-67
2021/12/08 10:10:30;;;;;;;5.55;3.10;;;;;;;-0.73;88.22;98947.16;1698925;83;21073;-66
2021/12/08 10:12:57;;;;;;;5.85;3.08;;;;;;;-0.72;88.44;98947.98;1695025;84;21062;-67
2021/12/08 10:15:23;;;;;;;5.33;3.00;;;;;;;-0.70;88.35;98948.56;1694732;84;21643;-67
2021/12/08 10:17:50;;;;;;;;;;;;;;;-0.73;88.18;98940.99;1697202;83;21010;-67
2021/12/08 10:20:24;;;;;;;4.53;2.60;;;;;;;-0.74;88.15;98941.50;1692634;84;20125;-66
2021/12/08 10:23:27;;;;;;;3.70;2.27;;;;;;;-0.80;88.28;98943.72;1692132;84;20999;-66
2021/12/08 10:26:13;;;;;;;3.35;2.08;;;;;;;-0.80;88.48;98937.55;1692661;84;21034;-67
2021/12/08 10:28:50;;;;;;;4.10;2.27;;;;;;;-0.78;88.48;98945.64;1697273;83;21058;-66
2021/12/08 10:31:30;;;;;;;4.03;2.45;;;;;;;-0.76;88.49;98943.59;1721494;83;21022;-67
2021/12/08 10:41:10;;;;;;;4.53;2.45;;;;;;;-0.65;88.44;98946.89;1801379;79;23396;-66
2021/12/08 10:43:36;;;;;;;4.35;2.33;;;;;;;-0.74;88.58;98935.34;1757765;81;21067;-68
2021/12/08 10:46:09;;;;;;;;;;;;;;;-0.71;88.63;98935.72;1755356;82;21074;-67
2021/12/08 10:48:42;;;;;;;3.77;2.20;;;;;;;-0.71;88.49;98926.91;1738480;82;20141;-68
2021/12/08 10:54:30;;;;;;;4.70;2.67;;;;;;;-0.71;88.49;98919.68;1723215;83;21059;-66
2021/12/08 10:56:59;;;;;;;5.00;2.90;;;;;;;-0.73;88.36;98924.44;1733818;82;20963;-67
2021/12/08 10:59:28;;;;;;;6.47;3.45;;;;;;;-0.73;88.43;98917.77;1752636;82;21078;-67
2021/12/08 11:02:02;;;;;;;5.62;3.17;;;;;;;-0.74;88.50;98917.45;1752038;81;21516;-68
2021/12/08 11:04:31;;;;;;;4.92;2.87;;;;;;;-0.75;88.63;98913.68;1752609;81;21091;-66
2021/12/08 11:07:06;;;;;;;4.87;3.00;;;;;;;-0.72;88.54;98910.05;1750353;82;21087;-67
2021/12/08 11:09:41;;;;;;;6.23;3.80;;;;;;;-0.72;88.50;98900.70;1753070;82;21118;-66
2021/12/08 11:12:07;;;;;;;5.65;3.17;;;;;;;-0.72;88.42;98897.20;1752715;82;20968;-67
2021/12/08 11:14:47;;;;;;;;;;;;;;;-0.73;88.40;98900.90;1726068;82;21031;-67
2021/12/08 11:17:29;;;;;;;6.25;3.72;;;;;;;-0.75;88.51;98885.62;1727303;81;20121;-67
2021/12/08 11:20:19;;;;;;;6.37;3.52;;;;;;;-0.77;88.62;98889.83;1722981;83;21118;-66
2021/12/08 11:23:02;;;;;;;6.67;3.60;;;;;;;-0.75;88.67;98878.94;1726967;78;66937;-64
2021/12/08 11:25:39;;;;;;;5.50;3.30;;;;;;;-0.73;88.59;98885.69;1670643;86;21066;-64
2021/12/08 11:28:29;;;;;;;4.83;3.10;;;;;;;-0.74;88.58;98881.37;1664687;85;21540;-64
2021/12/08 11:31:10;;;;;;;6.42;3.70;;;;;;;-0.70;88.69;98880.41;1679302;85;20993;-64
2021/12/08 11:33:41;;;;;;;8.88;4.70;;;;;;;-0.71;88.54;98875.58;1678206;85;21042;-63
2021/12/08 11:36:08;;;;;;;4.78;3.02;;;;;;;-0.73;88.60;98871.50;1649460;85;21095;-64
2021/12/08 11:38:35;;;;;;;7.70;4.40;;;;;;;-0.73;88.58;98856.29;1651352;87;21514;-63
2021/12/08 11:41:07;;;;;;;6.45;3.55;;;;;;;-0.71;88.53;98874.25;1651576;87;21560;-64
2021/12/08 11:43:34;;;;;;;5.80;3.80;;;;;;;-0.68;88.54;98869.00;1626192;87;21089;-64
2021/12/08 11:46:14;;;;;;;6.58;3.75;;;;;;;-0.63;88.52;98866.47;1660895;84;20981;-64
2021/12/08 11:49:03;;;;;;;6.50;3.10;;;;;;;-0.67;88.52;98869.28;1698886;84;21045;-64
2021/12/08 11:51:26;;;;;;;6.80;3.50;;;;;;;-0.68;88.63;98867.16;1674775;85;21021;-64
2021/12/08 11:53:52;;;;;;;5.10;3.37;;;;;;;-0.62;88.63;98861.42;1679849;85;21113;-64
2021/12/08 11:56:35;;;;;;;5.87;3.50;;;;;;;-0.57;88.52;98861.59;1680198;85;21002;-65
2021/12/08 11:59:04;;;;;;;6.75;3.85;;;;;;;-0.61;88.39;98862.55;1679493;85;21057;-65
2021/12/08 12:01:30;;;;;;;7.12;3.80;;;;;;;-0.61;88.38;98875.09;1679778;85;21009;-65
2021/12/08 12:03:57;;;;;;;5.08;3.45;;;;;;;-0.59;88.41;98867.66;1679922;85;21116;-65
2021/12/08 12:06:27;;;;;;;6.47;3.47;;;;;;;-0.56;88.42;98877.91;1679889;85;21427;-66
2021/12/08 12:08:51;;;;;;;5.80;3.75;;;;;;;-0.60;88.39;98871.36;1679366;85;21133;-65
2021/12/08 12:11:18;;;;;;;;;;;;;;;-0.64;88.48;98866.98;1682679;85;20970;-65
2021/12/08 12:16:14;;;;;;;6.60;3.95;;;;;;;-0.61;88.47;98854.53;1801244;79;22797;-63
2021/12/08 12:18:41;;;;;;;8.18;4.85;;;;;;;-0.69;88.59;98851.32;1754843;80;21055;-64
2021/12/08 12:21:31;;;;;;;7.62;4.70;;;;;;;-0.67;88.60;98853.23;1752878;82;21097;-64
2021/12/08 12:24:11;;;;;;;7.95;4.72;;;;;;;-0.68;88.52;98847.62;1752710;81;21134;-64
2021/12/08 12:27:07;;;;;;;7.53;5.15;;;;;;;-0.68;88.46;98849.78;1752543;82;21055;-63
2021/12/08 12:29:48;;;;;;;7.67;4.28;;;;;;;-0.70;88.45;98844.33;1752558;81;21115;-64
2021/12/08 12:32:25;;;;;;;9.53;5.60;;;;;;;-0.71;88.51;98852.08;1753110;82;21560;-68
2021/12/08 12:34:53;;;;;;;8.95;4.37;;;;;;;-0.74;88.55;98858.66;1735938;82;21062;-67
2021/12/08 12:37:34;;;;;;;7.30;4.70;;;;;;;-0.71;88.59;98866.23;1723630;82;21018;-67
2021/12/08 12:40:03;;;;;;;7.12;4.33;;;;;;;-0.68;88.56;98863.14;1741279;82;21031;-68